createdAt,value
2023-03-20T00:00:09.535Z,17
2023-03-20T00:01:18.475Z,18
2023-03-20T00:02:27.999Z,19
2023-03-20T00:03:34.880Z,19
2023-03-20T00:04:41.780Z,20
2023-03-20T00:05:48.630Z,19
2023-03-20T00:06:55.439Z,19
2023-03-20T00:08:02.299Z,19
2023-03-20T00:09:09.229Z,20
2023-03-20T00:10:16.217Z,19
2023-03-20T00:11:23.144Z,19
2023-03-20T00:12:29.963Z,19
2023-03-20T00:13:36.761Z,18
2023-03-20T00:14:43.601Z,17
2023-03-20T00:15:50.407Z,18
2023-03-20T00:16:57.318Z,17
2023-03-20T00:18:04.110Z,17
2023-03-20T00:19:16.120Z,16
2023-03-20T00:20:24.388Z,16
2023-03-20T00:21:31.208Z,16
2023-03-20T00:22:38.112Z,16
2023-03-20T00:23:44.907Z,16
2023-03-20T00:24:51.773Z,17
2023-03-20T00:25:58.714Z,16
2023-03-20T00:27:05.605Z,15
2023-03-20T00:28:12.383Z,16
2023-03-20T00:29:29.296Z,16
2023-03-20T00:30:36.693Z,15
2023-03-20T00:31:43.527Z,15
2023-03-20T00:32:50.498Z,15
2023-03-20T00:33:57.235Z,15
2023-03-20T00:35:05.888Z,15
2023-03-20T00:36:20.392Z,15
2023-03-20T00:37:27.306Z,16
2023-03-20T00:38:34.154Z,15
2023-03-20T00:39:40.982Z,15
2023-03-20T00:40:47.811Z,15
2023-03-20T00:41:54.586Z,15
2023-03-20T00:43:04.423Z,15
2023-03-20T00:44:11.218Z,14
2023-03-20T00:45:26.203Z,15
2023-03-20T00:46:33.063Z,15
2023-03-20T00:47:39.980Z,15
2023-03-20T00:48:46.824Z,14
2023-03-20T00:49:53.576Z,16
2023-03-20T00:51:01.403Z,15
2023-03-20T00:52:08.451Z,15
2023-03-20T00:53:18.140Z,15
2023-03-20T00:54:24.975Z,14
2023-03-20T00:55:32.797Z,14
2023-03-20T00:56:39.402Z,14
2023-03-20T00:57:48.365Z,15
2023-03-20T00:58:55.215Z,14
2023-03-20T01:00:02.075Z,14
2023-03-20T01:01:16.920Z,15
2023-03-20T01:02:23.763Z,15
2023-03-20T01:03:30.484Z,15
2023-03-20T01:04:37.407Z,15
2023-03-20T01:05:44.193Z,15
2023-03-20T01:06:50.938Z,15
2023-03-20T01:07:57.771Z,15
2023-03-20T01:09:04.650Z,15
2023-03-20T01:10:11.416Z,14
2023-03-20T01:11:18.260Z,15
2023-03-20T01:12:25.096Z,15
2023-03-20T01:13:31.911Z,14
2023-03-20T01:14:38.802Z,15
2023-03-20T01:15:45.669Z,15
2023-03-20T01:16:52.607Z,14
2023-03-20T01:17:59.402Z,15
2023-03-20T01:19:06.133Z,15
2023-03-20T01:20:15.872Z,16
2023-03-20T01:21:30.921Z,16
2023-03-20T01:22:38.048Z,16
2023-03-20T01:23:47.476Z,16
2023-03-20T01:24:54.225Z,16
2023-03-20T01:26:01.049Z,16
2023-03-20T01:27:08.042Z,16
2023-03-20T01:28:14.932Z,17
2023-03-20T01:29:24.784Z,18
2023-03-20T01:30:31.748Z,17
2023-03-20T01:31:38.612Z,16
2023-03-20T01:32:45.412Z,15
2023-03-20T01:33:52.323Z,15
2023-03-20T01:34:59.346Z,14
2023-03-20T01:36:06.277Z,15
2023-03-20T01:37:15.807Z,14
2023-03-20T01:38:27.759Z,14
2023-03-20T01:39:34.617Z,14
2023-03-20T01:40:42.795Z,15
2023-03-20T01:41:54.601Z,14
2023-03-20T01:43:01.380Z,14
2023-03-20T01:44:08.158Z,14
2023-03-20T01:45:20.798Z,14
2023-03-20T01:46:27.643Z,15
2023-03-20T01:47:34.431Z,15
2023-03-20T01:48:41.306Z,14
2023-03-20T01:49:53.226Z,15
2023-03-20T01:51:08.363Z,15
2023-03-20T01:52:15.252Z,15
2023-03-20T01:53:22.092Z,15
2023-03-20T01:54:29.007Z,14
2023-03-20T01:55:36.162Z,14
2023-03-20T01:56:42.602Z,15
2023-03-20T01:57:56.007Z,14
2023-03-20T01:59:02.835Z,14
2023-03-20T02:00:10.509Z,15
2023-03-20T02:01:19.203Z,14
2023-03-20T02:02:25.967Z,14
2023-03-20T02:03:32.875Z,13
2023-03-20T02:04:39.871Z,14
2023-03-20T02:05:46.751Z,14
2023-03-20T02:06:58.452Z,14
2023-03-20T02:08:05.254Z,13
2023-03-20T02:09:14.829Z,14
2023-03-20T02:10:21.615Z,14
2023-03-20T02:11:28.444Z,13
2023-03-20T02:12:35.313Z,14
2023-03-20T02:13:42.240Z,14
2023-03-20T02:14:49.802Z,13
2023-03-20T02:15:57.408Z,14
2023-03-20T02:17:09.527Z,14
2023-03-20T02:18:16.304Z,13
2023-03-20T02:19:25.001Z,13
2023-03-20T02:20:34.637Z,14
2023-03-20T02:21:51.527Z,15
2023-03-20T02:23:00.920Z,15
2023-03-20T02:24:17.792Z,15
2023-03-20T02:25:32.614Z,15
2023-03-20T02:26:49.523Z,14
2023-03-20T02:27:59.336Z,14
2023-03-20T02:29:13.941Z,14
2023-03-20T02:30:25.770Z,14
2023-03-20T02:31:42.654Z,15
2023-03-20T02:32:57.244Z,16
2023-03-20T02:34:13.425Z,18
2023-03-20T02:35:28.084Z,17
2023-03-20T02:36:39.910Z,16
2023-03-20T02:37:56.822Z,17
2023-03-20T02:39:06.653Z,17
2023-03-20T02:40:23.569Z,17
2023-03-20T02:41:36.492Z,17
2023-03-20T02:42:53.394Z,17
2023-03-20T02:44:10.346Z,17
2023-03-20T02:45:22.217Z,16
2023-03-20T02:46:29.985Z,18
2023-03-20T02:47:44.486Z,20
2023-03-20T02:48:51.221Z,20
2023-03-20T02:50:05.957Z,18
2023-03-20T02:51:17.542Z,19
2023-03-20T02:52:29.437Z,19
2023-03-20T02:53:40.330Z,18
2023-03-20T02:54:55.282Z,18
2023-03-20T02:56:10.265Z,19
2023-03-20T02:57:24.766Z,18
2023-03-20T02:58:34.442Z,18
2023-03-20T02:59:49.176Z,18
2023-03-20T03:00:59.046Z,20
2023-03-20T03:02:13.715Z,21
2023-03-20T03:03:20.542Z,19
2023-03-20T03:04:27.403Z,20
2023-03-20T03:05:35.336Z,20
2023-03-20T03:06:46.989Z,21
2023-03-20T03:07:53.850Z,20
2023-03-20T03:09:01.523Z,21
2023-03-20T03:10:19.675Z,20
2023-03-20T03:11:32.437Z,20
2023-03-20T03:12:39.268Z,19
2023-03-20T03:13:46.067Z,19
2023-03-20T03:14:52.995Z,18
2023-03-20T03:15:59.829Z,19
2023-03-20T03:17:06.666Z,19
2023-03-20T03:18:13.513Z,19
2023-03-20T03:19:23.402Z,19
2023-03-20T03:20:30.207Z,19
2023-03-20T03:21:38.198Z,19
2023-03-20T03:22:45.050Z,17
2023-03-20T03:23:52.739Z,19
2023-03-20T03:24:59.661Z,18
2023-03-20T03:26:06.435Z,17
2023-03-20T03:27:13.222Z,17
2023-03-20T03:28:27.731Z,18
2023-03-20T03:29:35.330Z,18
2023-03-20T03:30:42.115Z,19
2023-03-20T03:31:48.923Z,19
2023-03-20T03:32:55.797Z,20
2023-03-20T03:34:12.606Z,21
2023-03-20T03:35:19.384Z,19
2023-03-20T03:36:26.387Z,21
2023-03-20T03:37:36.303Z,21
2023-03-20T03:38:51.010Z,21
2023-03-20T03:40:08.082Z,20
2023-03-20T03:41:20.006Z,21
2023-03-20T03:42:34.866Z,20
2023-03-20T03:43:46.818Z,20
2023-03-20T03:45:01.653Z,21
2023-03-20T03:46:15.315Z,20
2023-03-20T03:47:30.208Z,19
2023-03-20T03:48:47.122Z,20
2023-03-20T03:49:53.943Z,21
2023-03-20T03:51:05.822Z,20
2023-03-20T03:52:13.845Z,21
2023-03-20T03:53:23.657Z,22
2023-03-20T03:54:33.422Z,22
2023-03-20T03:55:48.344Z,23
2023-03-20T03:56:55.108Z,22
2023-03-20T03:58:01.958Z,22
2023-03-20T03:59:13.782Z,22
2023-03-20T04:00:28.504Z,21
2023-03-20T04:01:35.513Z,22
2023-03-20T04:02:42.180Z,22
2023-03-20T04:03:48.989Z,21
2023-03-20T04:04:55.825Z,19
2023-03-20T04:06:02.660Z,21
2023-03-20T04:07:09.585Z,19
2023-03-20T04:08:16.392Z,20
2023-03-20T04:09:23.154Z,19
2023-03-20T04:10:32.023Z,20
2023-03-20T04:11:38.870Z,19
2023-03-20T04:12:46.566Z,19
2023-03-20T04:13:53.524Z,19
2023-03-20T04:15:02.927Z,19
2023-03-20T04:16:07.196Z,19
2023-03-20T04:17:16.646Z,18
2023-03-20T04:18:23.416Z,19
2023-03-20T04:19:31.283Z,18
2023-03-20T04:20:38.066Z,18
2023-03-20T04:21:44.946Z,19
2023-03-20T04:22:51.894Z,20
2023-03-20T04:23:58.729Z,20
2023-03-20T04:25:05.546Z,20
2023-03-20T04:26:12.472Z,18
2023-03-20T04:27:19.260Z,18
2023-03-20T04:28:26.057Z,19
2023-03-20T04:29:32.852Z,19
2023-03-20T04:30:39.633Z,18
2023-03-20T04:31:46.449Z,20
2023-03-20T04:32:53.362Z,20
2023-03-20T04:34:00.226Z,21
2023-03-20T04:35:07.001Z,22
2023-03-20T04:36:14.652Z,23
2023-03-20T04:37:23.016Z,25
2023-03-20T04:38:30.538Z,25
2023-03-20T04:39:39.147Z,24
2023-03-20T04:40:46.736Z,25
2023-03-20T04:41:53.524Z,24
2023-03-20T04:43:00.381Z,23
2023-03-20T04:44:07.528Z,22
2023-03-20T04:45:15.251Z,23
2023-03-20T04:46:24.119Z,23
2023-03-20T04:47:30.958Z,23
2023-03-20T04:48:37.859Z,27
2023-03-20T04:49:44.726Z,26
2023-03-20T04:50:51.532Z,22
2023-03-20T04:52:03.336Z,24
2023-03-20T04:53:10.697Z,23
2023-03-20T04:54:17.652Z,22
2023-03-20T04:55:24.571Z,21
2023-03-20T04:56:31.547Z,22
2023-03-20T04:57:40.252Z,22
2023-03-20T04:58:47.068Z,21
2023-03-20T04:59:53.868Z,22
2023-03-20T05:01:01.739Z,23
2023-03-20T05:02:08.623Z,23
2023-03-20T05:03:15.635Z,23
2023-03-20T05:04:22.663Z,23
2023-03-20T05:05:29.519Z,23
2023-03-20T05:06:36.314Z,23
2023-03-20T05:07:43.121Z,22
2023-03-20T05:08:50.954Z,22
2023-03-20T05:09:57.850Z,22
2023-03-20T05:11:06.985Z,23
2023-03-20T05:12:15.758Z,23
2023-03-20T05:13:22.814Z,26
2023-03-20T05:14:31.424Z,25
2023-03-20T05:15:38.360Z,24
2023-03-20T05:16:47.272Z,24
2023-03-20T05:17:54.131Z,22
2023-03-20T05:19:01.110Z,21
2023-03-20T05:20:08.984Z,21
2023-03-20T05:21:16.878Z,21
2023-03-20T05:22:27.780Z,21
2023-03-20T05:23:34.579Z,21
2023-03-20T05:24:41.331Z,19
2023-03-20T05:25:48.913Z,22
2023-03-20T05:26:57.237Z,21
2023-03-20T05:28:04.162Z,20
2023-03-20T05:29:10.947Z,22
2023-03-20T05:30:17.718Z,22
2023-03-20T05:31:26.870Z,22
2023-03-20T05:32:33.622Z,22
2023-03-20T05:33:40.522Z,23
2023-03-20T05:34:47.716Z,23
2023-03-20T05:35:54.698Z,23
2023-03-20T05:37:01.619Z,23
2023-03-20T05:38:11.084Z,25
2023-03-20T05:39:17.920Z,26
2023-03-20T05:40:24.816Z,25
2023-03-20T05:41:32.572Z,25
2023-03-20T05:42:39.514Z,26
2023-03-20T05:43:46.448Z,26
2023-03-20T05:44:53.468Z,25
2023-03-20T05:46:01.061Z,24
2023-03-20T05:47:10.240Z,28
2023-03-20T05:48:17.052Z,29
2023-03-20T05:49:24.718Z,29
2023-03-20T05:50:31.691Z,31
2023-03-20T05:51:38.605Z,31
2023-03-20T05:52:46.076Z,31
2023-03-20T05:53:56.389Z,30
2023-03-20T05:55:03.208Z,30
2023-03-20T05:56:13.482Z,30
2023-03-20T05:57:21.201Z,28
2023-03-20T05:58:28.980Z,30
2023-03-20T05:59:35.963Z,28
2023-03-20T06:00:42.813Z,29
2023-03-20T06:01:53.606Z,30
2023-03-20T06:03:00.561Z,29
2023-03-20T06:04:07.377Z,29
2023-03-20T06:05:14.532Z,29
2023-03-20T06:06:22.736Z,27
2023-03-20T06:07:29.677Z,29
2023-03-20T06:08:36.681Z,26
2023-03-20T06:09:43.614Z,25
2023-03-20T06:10:52.862Z,24
2023-03-20T06:12:02.382Z,26
2023-03-20T06:13:09.422Z,26
2023-03-20T06:14:17.279Z,26
2023-03-20T06:15:24.100Z,25
2023-03-20T06:16:31.061Z,26
2023-03-20T06:17:41.807Z,27
2023-03-20T06:18:48.732Z,27
2023-03-20T06:19:55.687Z,28
2023-03-20T06:21:03.833Z,29
2023-03-20T06:22:12.136Z,28
2023-03-20T06:23:21.104Z,28
2023-03-20T06:24:31.348Z,30
2023-03-20T06:25:40.195Z,29
2023-03-20T06:26:50.458Z,29
2023-03-20T06:27:57.358Z,29
2023-03-20T06:29:04.982Z,30
2023-03-20T06:30:12.631Z,31
2023-03-20T06:31:20.628Z,29
2023-03-20T06:32:27.640Z,31
2023-03-20T06:33:34.558Z,32
2023-03-20T06:34:41.474Z,30
2023-03-20T06:35:49.741Z,30
2023-03-20T06:36:56.551Z,33
2023-03-20T06:38:08.821Z,33
2023-03-20T06:39:15.780Z,33
2023-03-20T06:40:23.788Z,31
2023-03-20T06:41:34.824Z,32
2023-03-20T06:42:43.731Z,32
2023-03-20T06:43:51.458Z,31
2023-03-20T06:45:00.139Z,30
2023-03-20T06:46:07.507Z,32
2023-03-20T06:47:14.346Z,32
2023-03-20T06:48:23.933Z,31
2023-03-20T06:49:31.022Z,32
2023-03-20T06:50:37.941Z,31
2023-03-20T06:51:44.817Z,30
2023-03-20T06:52:51.725Z,32
2023-03-20T06:53:58.526Z,31
2023-03-20T06:55:05.294Z,31
2023-03-20T06:56:13.444Z,30
2023-03-20T06:57:20.385Z,30
2023-03-20T06:58:27.389Z,30
2023-03-20T06:59:37.177Z,30
2023-03-20T07:00:44.397Z,29
2023-03-20T07:01:51.221Z,30
2023-03-20T07:03:01.097Z,29
2023-03-20T07:04:06.243Z,29
2023-03-20T07:05:13.082Z,29
2023-03-20T07:06:20.194Z,29
2023-03-20T07:07:27.055Z,29
2023-03-20T07:08:35.166Z,29
2023-03-20T07:09:41.148Z,29
2023-03-20T07:10:48.086Z,30
2023-03-20T07:11:54.982Z,30
2023-03-20T07:13:01.914Z,30
2023-03-20T07:14:08.762Z,30
2023-03-20T07:15:15.623Z,30
2023-03-20T07:16:23.408Z,30
2023-03-20T07:17:30.163Z,28
2023-03-20T07:18:37.061Z,29
2023-03-20T07:19:44.715Z,29
2023-03-20T07:20:51.770Z,28
2023-03-20T07:21:58.756Z,29
2023-03-20T07:23:09.704Z,29
2023-03-20T07:24:16.858Z,30
2023-03-20T07:25:35.643Z,29
2023-03-20T07:26:32.325Z,30
2023-03-20T07:27:40.372Z,27
2023-03-20T07:28:50.272Z,29
2023-03-20T07:29:57.137Z,28
2023-03-20T07:31:04.069Z,29
2023-03-20T07:32:13.033Z,30
2023-03-20T07:33:21.346Z,30
2023-03-20T07:34:28.144Z,31
2023-03-20T07:35:35.239Z,32
2023-03-20T07:36:42.967Z,33
2023-03-20T07:37:50.026Z,35
2023-03-20T07:38:57.055Z,34
2023-03-20T07:40:04.641Z,34
2023-03-20T07:41:11.832Z,36
2023-03-20T07:42:23.444Z,37
2023-03-20T07:43:33.032Z,38
2023-03-20T07:44:40.003Z,40
2023-03-20T07:45:46.821Z,39
2023-03-20T07:46:53.603Z,39
2023-03-20T07:48:00.621Z,35
2023-03-20T07:49:08.183Z,35
2023-03-20T07:50:15.032Z,28
2023-03-20T07:51:21.978Z,26
2023-03-20T07:52:28.854Z,28
2023-03-20T07:53:35.749Z,27
2023-03-20T07:54:43.597Z,27
2023-03-20T07:55:50.446Z,26
2023-03-20T07:56:57.336Z,27
2023-03-20T07:58:04.452Z,27
2023-03-20T07:59:11.277Z,25
2023-03-20T08:00:19.709Z,26
2023-03-20T08:01:26.600Z,27
2023-03-20T08:02:36.051Z,27
2023-03-20T08:03:43.812Z,28
2023-03-20T08:04:52.134Z,29
2023-03-20T08:05:58.945Z,26
2023-03-20T08:07:05.830Z,28
2023-03-20T08:08:12.794Z,28
2023-03-20T08:09:19.617Z,28
2023-03-20T08:10:26.706Z,27
2023-03-20T08:11:34.787Z,25
2023-03-20T08:12:42.913Z,25
2023-03-20T08:13:49.731Z,26
2023-03-20T08:14:58.197Z,27
2023-03-20T08:16:05.053Z,22
2023-03-20T08:17:16.000Z,24
2023-03-20T08:18:20.330Z,26
2023-03-20T08:19:27.166Z,25
2023-03-20T08:20:36.158Z,24
2023-03-20T08:21:43.038Z,25
2023-03-20T08:22:49.970Z,24
2023-03-20T08:23:57.242Z,24
2023-03-20T08:25:04.333Z,24
2023-03-20T08:26:17.056Z,27
2023-03-20T08:27:24.759Z,27
2023-03-20T08:28:46.428Z,28
2023-03-20T08:29:40.819Z,27
2023-03-20T08:30:47.839Z,25
2023-03-20T08:31:54.928Z,23
2023-03-20T08:33:03.000Z,24
2023-03-20T08:34:10.072Z,25
2023-03-20T08:35:32.400Z,27
2023-03-20T08:36:26.493Z,25
2023-03-20T08:37:33.344Z,25
2023-03-20T08:38:41.645Z,25
2023-03-20T08:39:50.160Z,26
2023-03-20T08:40:57.041Z,25
2023-03-20T08:42:04.190Z,25
2023-03-20T08:43:13.095Z,28
2023-03-20T08:44:22.640Z,28
2023-03-20T08:45:29.638Z,27
2023-03-20T08:46:37.539Z,30
2023-03-20T08:47:44.401Z,30
2023-03-20T08:48:51.251Z,29
2023-03-20T08:50:02.214Z,28
2023-03-20T08:51:09.217Z,26
2023-03-20T08:52:17.855Z,24
2023-03-20T08:53:24.705Z,25
2023-03-20T08:54:31.590Z,25
2023-03-20T08:55:40.774Z,25
2023-03-20T08:56:53.046Z,23
2023-03-20T08:58:04.134Z,26
2023-03-20T08:59:10.990Z,22
2023-03-20T09:00:17.840Z,24
2023-03-20T09:01:30.354Z,22
2023-03-20T09:02:33.199Z,22
2023-03-20T09:03:40.369Z,22
2023-03-20T09:04:49.387Z,22
2023-03-20T09:05:56.459Z,20
2023-03-20T09:07:07.119Z,23
2023-03-20T09:08:16.924Z,22
2023-03-20T09:09:23.805Z,22
2023-03-20T09:10:30.773Z,20
2023-03-20T09:11:37.613Z,21
2023-03-20T09:12:44.487Z,22
2023-03-20T09:13:51.366Z,20
2023-03-20T09:14:58.181Z,21
2023-03-20T09:16:07.021Z,22
2023-03-20T09:17:13.865Z,20
2023-03-20T09:18:21.041Z,20
2023-03-20T09:19:30.711Z,22
2023-03-20T09:20:38.078Z,22
2023-03-20T09:21:45.328Z,20
2023-03-20T09:22:54.744Z,20
2023-03-20T09:24:01.794Z,21
2023-03-20T09:25:09.973Z,21
2023-03-20T09:26:20.866Z,20
2023-03-20T09:27:31.510Z,21
2023-03-20T09:28:38.808Z,22
2023-03-20T09:29:49.417Z,21
2023-03-20T09:31:03.118Z,19
2023-03-20T09:32:11.634Z,22
2023-03-20T09:33:21.454Z,21
2023-03-20T09:34:28.493Z,22
2023-03-20T09:35:35.787Z,20
2023-03-20T09:36:43.544Z,21
2023-03-20T09:37:51.300Z,22
2023-03-20T09:38:58.241Z,22
2023-03-20T09:40:05.291Z,21
2023-03-20T09:41:17.430Z,23
2023-03-20T09:42:24.355Z,23
2023-03-20T09:43:41.680Z,22
2023-03-20T09:44:59.012Z,22
2023-03-20T09:46:13.994Z,23
2023-03-20T09:47:29.652Z,23
2023-03-20T09:48:47.283Z,23
2023-03-20T09:49:57.224Z,24
2023-03-20T09:51:10.543Z,22
2023-03-20T09:52:23.644Z,24
2023-03-20T09:53:34.711Z,25
2023-03-20T09:54:53.444Z,26
2023-03-20T09:55:56.178Z,25
2023-03-20T09:57:03.993Z,25
2023-03-20T09:58:10.976Z,26
2023-03-20T09:59:26.879Z,23
2023-03-20T10:00:34.417Z,23
2023-03-20T10:01:40.976Z,24
2023-03-20T10:02:54.725Z,26
2023-03-20T10:04:04.845Z,25
2023-03-20T10:05:13.713Z,25
2023-03-20T10:06:25.731Z,25
2023-03-20T10:07:37.640Z,24
2023-03-20T10:08:45.601Z,23
2023-03-20T10:09:52.514Z,24
2023-03-20T10:11:00.173Z,20
2023-03-20T10:12:17.577Z,19
2023-03-20T10:13:24.613Z,20
2023-03-20T10:14:39.548Z,18
2023-03-20T10:15:57.012Z,18
2023-03-20T10:17:14.077Z,17
2023-03-20T10:18:28.729Z,19
2023-03-20T10:19:38.641Z,16
2023-03-20T10:20:50.851Z,17
2023-03-20T10:22:01.136Z,19
2023-03-20T10:23:16.053Z,24
2023-03-20T10:24:22.853Z,22
2023-03-20T10:25:38.094Z,17
2023-03-20T10:26:50.204Z,22
2023-03-20T10:27:57.123Z,23
2023-03-20T10:29:04.013Z,20
2023-03-20T10:30:10.863Z,19
2023-03-20T10:31:25.673Z,21
2023-03-20T10:32:35.309Z,22
2023-03-20T10:33:45.396Z,23
2023-03-20T10:35:02.721Z,26
2023-03-20T10:36:20.190Z,25
2023-03-20T10:37:37.444Z,23
2023-03-20T10:38:54.949Z,23
2023-03-20T10:40:05.827Z,20
2023-03-20T10:41:23.039Z,18
2023-03-20T10:42:29.917Z,17
2023-03-20T10:43:39.862Z,19
2023-03-20T10:44:44.441Z,21
2023-03-20T10:45:59.065Z,19
2023-03-20T10:47:10.829Z,19
2023-03-20T10:48:18.079Z,21
2023-03-20T10:49:36.829Z,21
2023-03-20T10:50:47.487Z,20
2023-03-20T10:51:54.640Z,18
2023-03-20T10:53:01.570Z,18
2023-03-20T10:54:08.315Z,19
2023-03-20T10:55:18.266Z,20
2023-03-20T10:56:28.899Z,20
2023-03-20T10:57:42.538Z,20
2023-03-20T10:58:52.372Z,20
2023-03-20T11:00:07.422Z,20
2023-03-20T11:01:17.038Z,20
2023-03-20T11:02:23.860Z,20
2023-03-20T11:03:31.531Z,19
2023-03-20T11:04:38.541Z,20
2023-03-20T11:05:52.691Z,21
2023-03-20T11:06:57.537Z,20
2023-03-20T11:08:07.053Z,19
2023-03-20T11:09:17.608Z,20
2023-03-20T11:10:25.441Z,21
2023-03-20T11:11:32.483Z,19
2023-03-20T11:12:39.368Z,22
2023-03-20T11:13:47.239Z,21
2023-03-20T11:14:54.082Z,22
2023-03-20T11:16:00.967Z,21
2023-03-20T11:17:14.449Z,22
2023-03-20T11:18:22.380Z,20
2023-03-20T11:19:32.083Z,22
2023-03-20T11:20:39.212Z,22
2023-03-20T11:21:53.928Z,21
2023-03-20T11:23:00.925Z,22
2023-03-20T11:24:11.657Z,22
2023-03-20T11:25:27.453Z,21
2023-03-20T11:26:37.327Z,21
2023-03-20T11:27:44.174Z,23
2023-03-20T11:28:51.001Z,24
2023-03-20T11:30:00.791Z,24
2023-03-20T11:31:09.472Z,23
2023-03-20T11:32:19.125Z,19
2023-03-20T11:33:34.967Z,19
2023-03-20T11:34:41.773Z,17
2023-03-20T11:35:49.309Z,16
2023-03-20T11:37:09.098Z,16
2023-03-20T11:38:04.884Z,18
2023-03-20T11:39:20.574Z,17
2023-03-20T11:40:27.508Z,17
2023-03-20T11:41:34.418Z,16
2023-03-20T11:42:49.549Z,17
2023-03-20T11:43:59.161Z,13
2023-03-20T11:45:08.920Z,14
2023-03-20T11:46:18.799Z,14
2023-03-20T11:47:25.630Z,14
2023-03-20T11:48:32.438Z,15
2023-03-20T11:49:44.199Z,15
2023-03-20T11:50:56.012Z,14
2023-03-20T11:52:06.005Z,13
2023-03-20T11:53:16.887Z,14
2023-03-20T11:54:28.892Z,14
2023-03-20T11:55:35.899Z,15
2023-03-20T11:56:42.696Z,15
2023-03-20T11:57:58.592Z,17
2023-03-20T11:59:05.460Z,15
2023-03-20T12:00:12.302Z,14
2023-03-20T12:01:25.037Z,14
2023-03-20T12:02:32.860Z,12
2023-03-20T12:03:39.752Z,13
2023-03-20T12:04:51.215Z,12
2023-03-20T12:05:58.131Z,13
2023-03-20T12:07:05.022Z,14
2023-03-20T12:08:15.271Z,13
2023-03-20T12:09:28.239Z,13
2023-03-20T12:10:45.448Z,13
2023-03-20T12:11:52.447Z,13
2023-03-20T12:13:09.627Z,13
2023-03-20T12:14:17.222Z,13
2023-03-20T12:15:29.167Z,13
2023-03-20T12:16:38.307Z,11
2023-03-20T12:17:45.219Z,12
2023-03-20T12:19:00.353Z,12
2023-03-20T12:20:07.245Z,12
2023-03-20T12:21:24.386Z,11
2023-03-20T12:22:37.250Z,11
2023-03-20T12:23:55.517Z,11
2023-03-20T12:25:07.516Z,11
2023-03-20T12:26:22.011Z,11
2023-03-20T12:27:33.540Z,11
2023-03-20T12:28:41.137Z,12
2023-03-20T12:29:47.958Z,11
2023-03-20T12:31:00.529Z,11
2023-03-20T12:32:08.583Z,10
2023-03-20T12:33:18.121Z,11
2023-03-20T12:34:25.983Z,10
2023-03-20T12:35:35.729Z,10
2023-03-20T12:36:42.591Z,11
2023-03-20T12:37:52.821Z,12
2023-03-20T12:38:59.716Z,11
2023-03-20T12:40:06.656Z,12
2023-03-20T12:41:20.185Z,11
2023-03-20T12:42:27.022Z,9
2023-03-20T12:43:38.961Z,10
2023-03-20T12:44:49.485Z,9
2023-03-20T12:46:04.572Z,10
2023-03-20T12:47:16.045Z,10
2023-03-20T12:48:31.191Z,10
2023-03-20T12:49:46.670Z,10
2023-03-20T12:50:58.695Z,10
2023-03-20T12:52:10.661Z,11
2023-03-20T12:53:27.049Z,10
2023-03-20T12:54:42.225Z,11
2023-03-20T12:56:00.432Z,11
2023-03-20T12:57:15.210Z,11
2023-03-20T12:58:25.101Z,11
2023-03-20T12:59:37.075Z,11
2023-03-20T13:00:46.725Z,10
2023-03-20T13:01:56.347Z,14
2023-03-20T13:03:12.152Z,32
2023-03-20T13:04:27.264Z,55
2023-03-20T13:05:45.456Z,186
2023-03-20T13:07:02.668Z,116
2023-03-20T13:08:09.501Z,33
2023-03-20T13:09:16.368Z,11
2023-03-20T13:10:28.458Z,22
2023-03-20T13:11:35.302Z,63
2023-03-20T13:12:48.193Z,147
2023-03-20T13:14:05.296Z,58
2023-03-20T13:15:13.866Z,171
2023-03-20T13:16:22.175Z,192
2023-03-20T13:17:34.085Z,141
2023-03-20T13:18:46.144Z,166
2023-03-20T13:20:04.145Z,164
2023-03-20T13:21:15.996Z,161
2023-03-20T13:22:22.889Z,108
2023-03-20T13:23:32.413Z,105
2023-03-20T13:24:46.956Z,117
2023-03-20T13:25:53.932Z,117
2023-03-20T13:27:11.132Z,105
2023-03-20T13:28:26.160Z,80
2023-03-20T13:29:41.142Z,61
2023-03-20T13:30:47.894Z,98
2023-03-20T13:32:02.581Z,21
2023-03-20T13:33:19.773Z,24
2023-03-20T13:34:34.880Z,31
2023-03-20T13:35:41.797Z,35
2023-03-20T13:36:53.705Z,30
2023-03-20T13:38:05.746Z,21
2023-03-20T13:39:15.309Z,18
2023-03-20T13:40:27.220Z,17
2023-03-20T13:41:36.931Z,19
2023-03-20T13:42:43.784Z,16
2023-03-20T13:44:01.061Z,22
2023-03-20T13:45:08.017Z,21
2023-03-20T13:46:17.711Z,18
2023-03-20T13:47:32.620Z,20
2023-03-20T13:48:40.335Z,20
2023-03-20T13:49:47.112Z,18
2023-03-20T13:51:01.914Z,18
2023-03-20T13:52:11.219Z,20
2023-03-20T13:53:18.060Z,21
2023-03-20T13:54:32.639Z,20
2023-03-20T13:55:49.834Z,21
2023-03-20T13:57:07.152Z,20
2023-03-20T13:58:24.460Z,17
2023-03-20T13:59:41.659Z,17
2023-03-20T14:00:58.904Z,18
2023-03-20T14:02:11.009Z,18
2023-03-20T14:03:37.282Z,18
2023-03-20T14:04:45.298Z,18
2023-03-20T14:05:56.501Z,18
2023-03-20T14:07:05.644Z,18
2023-03-20T14:08:22.306Z,16
2023-03-20T14:09:37.955Z,17
2023-03-20T14:10:44.920Z,18
2023-03-20T14:11:51.938Z,17
2023-03-20T14:12:58.802Z,18
2023-03-20T14:14:14.186Z,18
2023-03-20T14:15:21.551Z,17
2023-03-20T14:16:31.449Z,16
2023-03-20T14:17:38.370Z,17
2023-03-20T14:18:47.929Z,18
2023-03-20T14:19:54.804Z,17
2023-03-20T14:21:01.627Z,18
2023-03-20T14:22:08.609Z,17
2023-03-20T14:23:18.313Z,18
2023-03-20T14:24:25.301Z,17
2023-03-20T14:25:32.161Z,16
2023-03-20T14:26:38.954Z,15
2023-03-20T14:27:45.713Z,17
2023-03-20T14:29:00.808Z,25
2023-03-20T14:30:12.958Z,79
2023-03-20T14:31:24.981Z,109
2023-03-20T14:32:34.749Z,73
2023-03-20T14:33:41.543Z,87
2023-03-20T14:34:48.555Z,64
2023-03-20T14:35:55.449Z,68
2023-03-20T14:37:12.534Z,60
2023-03-20T14:38:28.373Z,66
2023-03-20T14:39:40.660Z,76
2023-03-20T14:40:57.621Z,63
2023-03-20T14:42:07.220Z,43
2023-03-20T14:43:23.328Z,29
2023-03-20T14:44:35.344Z,50
2023-03-20T14:45:49.982Z,56
2023-03-20T14:46:57.609Z,40
2023-03-20T14:48:09.527Z,49
2023-03-20T14:49:22.564Z,48
2023-03-20T14:50:37.843Z,30
2023-03-20T14:51:44.433Z,22
2023-03-20T14:52:51.316Z,18
2023-03-20T14:54:03.586Z,16
2023-03-20T14:55:21.422Z,16
2023-03-20T14:56:28.264Z,16
2023-03-20T14:57:48.914Z,16
2023-03-20T14:58:42.011Z,14
2023-03-20T14:59:54.029Z,16
2023-03-20T15:01:01.050Z,15
2023-03-20T15:02:07.848Z,15
2023-03-20T15:03:19.930Z,16
2023-03-20T15:04:26.853Z,16
2023-03-20T15:05:41.937Z,14
2023-03-20T15:06:48.784Z,14
2023-03-20T15:08:00.779Z,14
2023-03-20T15:09:10.704Z,16
2023-03-20T15:10:19.506Z,14
2023-03-20T15:11:24.501Z,14
2023-03-20T15:12:31.362Z,14
2023-03-20T15:13:38.234Z,14
2023-03-20T15:14:45.056Z,13
2023-03-20T15:15:57.049Z,15
2023-03-20T15:17:09.061Z,15
2023-03-20T15:18:18.893Z,14
2023-03-20T15:19:25.655Z,15
2023-03-20T15:20:32.538Z,15
2023-03-20T15:21:39.382Z,15
2023-03-20T15:22:46.315Z,13
2023-03-20T15:23:55.224Z,17
2023-03-20T15:25:03.021Z,18
2023-03-20T15:26:09.968Z,18
2023-03-20T15:27:16.848Z,12
2023-03-20T15:28:23.668Z,12
2023-03-20T15:29:30.516Z,12
2023-03-20T15:30:37.623Z,11
2023-03-20T15:31:44.226Z,12
2023-03-20T15:32:51.944Z,14
2023-03-20T15:33:58.746Z,13
2023-03-20T15:35:05.632Z,13
2023-03-20T15:36:20.402Z,15
2023-03-20T15:37:27.285Z,12
2023-03-20T15:38:34.213Z,10
2023-03-20T15:39:41.058Z,8
2023-03-20T15:40:51.787Z,8
2023-03-20T15:41:57.697Z,10
2023-03-20T15:43:04.574Z,9
2023-03-20T15:44:14.033Z,10
2023-03-20T15:45:28.953Z,9
2023-03-20T15:46:35.825Z,13
2023-03-20T15:47:43.504Z,15
2023-03-20T15:48:50.716Z,16
2023-03-20T15:49:57.616Z,13
2023-03-20T15:51:04.475Z,12
2023-03-20T15:52:11.412Z,13
2023-03-20T15:53:21.201Z,13
2023-03-20T15:54:33.280Z,12
2023-03-20T15:55:41.045Z,10
2023-03-20T15:56:50.671Z,10
2023-03-20T15:57:58.660Z,10
2023-03-20T15:59:05.506Z,10
2023-03-20T16:00:13.275Z,10
2023-03-20T16:01:20.556Z,10
2023-03-20T16:02:27.347Z,10
2023-03-20T16:03:34.256Z,9
2023-03-20T16:04:41.165Z,10
2023-03-20T16:05:47.986Z,9
2023-03-20T16:06:54.845Z,10
2023-03-20T16:08:01.704Z,10
2023-03-20T16:09:16.763Z,9
2023-03-20T16:10:23.539Z,10
2023-03-20T16:11:36.085Z,11
2023-03-20T16:12:44.140Z,11
2023-03-20T16:13:51.047Z,10
2023-03-20T16:14:57.917Z,11
2023-03-20T16:16:04.756Z,11
2023-03-20T16:17:11.558Z,11
2023-03-20T16:18:18.355Z,12
2023-03-20T16:19:25.108Z,13
2023-03-20T16:20:31.907Z,12
2023-03-20T16:21:38.744Z,13
2023-03-20T16:22:48.313Z,15
2023-03-20T16:23:55.078Z,16
2023-03-20T16:25:01.941Z,16
2023-03-20T16:26:09.055Z,15